createdAt,value
2023-02-24T00:00:38.420Z,8.16
2023-02-24T00:03:11.879Z,8.16
2023-02-24T00:05:45.892Z,8.23
2023-02-24T00:08:18.666Z,8.08
2023-02-24T00:10:50.400Z,8.08
2023-02-24T00:13:23.006Z,8.14
2023-02-24T00:16:03.503Z,8.05
2023-02-24T00:18:34.313Z,8.14
2023-02-24T00:21:13.382Z,8.04
2023-02-24T00:23:44.070Z,8.00
2023-02-24T00:26:16.902Z,8.18
2023-02-24T00:28:47.731Z,8.07
2023-02-24T00:31:19.451Z,8.21
2023-02-24T00:33:50.274Z,8.20
2023-02-24T00:36:26.922Z,8.23
2023-02-24T00:38:58.953Z,8.47
2023-02-24T00:41:32.157Z,8.32
2023-02-24T00:44:08.430Z,8.46
2023-02-24T00:46:43.042Z,8.47
2023-02-24T00:49:17.614Z,8.38
2023-02-24T00:51:49.255Z,8.34
2023-02-24T00:54:19.511Z,8.39
2023-02-24T00:56:49.614Z,8.57
2023-02-24T00:59:19.142Z,8.51
2023-02-24T01:01:51.231Z,8.39
2023-02-24T01:04:21.700Z,8.50
2023-02-24T01:07:01.150Z,8.51
2023-02-24T01:09:33.708Z,8.69
2023-02-24T01:12:31.348Z,8.62
2023-02-24T01:15:04.292Z,8.68
2023-02-24T01:17:38.562Z,8.79
2023-02-24T01:20:18.470Z,8.93
2023-02-24T01:22:50.777Z,8.86
2023-02-24T01:25:23.755Z,8.80
2023-02-24T01:27:54.560Z,8.80
2023-02-24T01:30:23.818Z,8.99
2023-02-24T01:32:55.050Z,8.99
2023-02-24T01:35:26.608Z,9.13
2023-02-24T01:37:56.556Z,8.99
2023-02-24T01:40:28.124Z,9.05
2023-02-24T01:42:57.576Z,9.05
2023-02-24T01:45:30.581Z,9.07
2023-02-24T02:00:49.061Z,9.03
2023-02-24T02:03:31.858Z,9.19
2023-02-24T02:06:08.521Z,9.31
2023-02-24T02:08:43.437Z,9.22
2023-02-24T02:11:23.600Z,9.29
2023-02-24T02:13:59.955Z,9.33
2023-02-24T02:16:43.815Z,9.14
2023-02-24T02:19:43.520Z,9.24
2023-02-24T02:22:21.277Z,9.16
2023-02-24T02:25:04.674Z,9.32
2023-02-24T02:27:50.387Z,9.41
2023-02-24T02:30:38.486Z,9.54
2023-02-24T02:33:32.714Z,9.57
2023-02-24T02:36:39.277Z,9.54
2023-02-24T02:39:29.868Z,9.55
2023-02-24T02:42:21.635Z,9.49
2023-02-24T02:45:06.478Z,9.51
2023-02-24T02:47:43.753Z,9.51
2023-02-24T02:50:24.939Z,9.49
2023-02-24T02:53:05.321Z,9.57
2023-02-24T02:55:43.392Z,9.49
2023-02-24T02:58:21.477Z,9.51
2023-02-24T03:01:02.580Z,9.48
2023-02-24T03:03:49.731Z,9.30
2023-02-24T03:06:26.944Z,9.50
2023-02-24T03:09:12.910Z,9.45
2023-02-24T03:11:43.688Z,9.49
2023-02-24T03:14:17.385Z,9.36
2023-02-24T03:16:47.856Z,9.38
2023-02-24T03:19:20.887Z,9.32
2023-02-24T03:22:16.488Z,9.19
2023-02-24T03:24:46.723Z,9.17
2023-02-24T03:27:43.582Z,9.44
2023-02-24T03:30:17.933Z,9.22
2023-02-24T03:33:19.269Z,9.33
2023-02-24T03:35:52.424Z,9.29
2023-02-24T03:38:25.470Z,9.37
2023-02-24T03:40:56.652Z,9.39
2023-02-24T03:43:33.403Z,9.27
2023-02-24T03:46:02.356Z,9.21
2023-02-24T03:48:40.274Z,9.22
2023-02-24T03:51:16.658Z,9.32
2023-02-24T03:54:20.825Z,9.33
2023-02-24T03:57:03.190Z,9.30
2023-02-24T03:59:53.848Z,9.54
2023-02-24T04:02:25.860Z,9.35
2023-02-24T04:05:11.930Z,9.57
2023-02-24T04:07:58.294Z,9.59
2023-02-24T04:10:35.555Z,9.61
2023-02-24T04:13:36.061Z,9.63
2023-02-24T04:16:19.165Z,9.62
2023-02-24T04:18:50.559Z,9.42
2023-02-24T04:21:21.051Z,9.51
2023-02-24T04:23:52.252Z,9.54
2023-02-24T04:26:23.109Z,9.49
2023-02-24T04:28:53.053Z,9.68
2023-02-24T04:31:24.840Z,9.60
2023-02-24T04:33:56.203Z,9.58
2023-02-24T04:36:34.798Z,9.64
2023-02-24T04:39:06.174Z,9.58
2023-02-24T04:41:38.346Z,9.63
2023-02-24T04:44:08.522Z,9.50
2023-02-24T04:46:38.193Z,9.28
2023-02-24T04:49:08.282Z,9.32
2023-02-24T04:51:43.103Z,9.38
2023-02-24T04:54:20.376Z,9.38
2023-02-24T04:56:53.014Z,9.43
2023-02-24T04:59:23.703Z,9.27
2023-02-24T05:01:53.935Z,9.29
2023-02-24T05:04:24.857Z,9.27
2023-02-24T05:06:58.152Z,9.26
2023-02-24T05:09:31.335Z,9.31
2023-02-24T05:12:01.203Z,9.16
2023-02-24T05:14:32.193Z,9.27
2023-02-24T05:17:04.246Z,9.13
2023-02-24T05:19:53.835Z,9.04
2023-02-24T05:22:23.703Z,9.08
2023-02-24T05:24:58.354Z,9.05
2023-02-24T05:27:31.338Z,9.10
2023-02-24T05:30:00.761Z,9.13
2023-02-24T05:32:30.166Z,9.20
2023-02-24T05:35:02.226Z,9.29
2023-02-24T05:37:36.136Z,9.29
2023-02-24T05:40:06.660Z,9.49
2023-02-24T05:42:37.658Z,9.35
2023-02-24T05:45:08.241Z,9.20
2023-02-24T05:47:41.716Z,9.30
2023-02-24T05:50:12.668Z,9.27
2023-02-24T05:52:49.276Z,9.35
2023-02-24T05:55:20.312Z,9.39
2023-02-24T05:57:51.627Z,9.46
2023-02-24T06:00:26.705Z,9.44
2023-02-24T06:03:10.179Z,9.51
2023-02-24T06:05:40.208Z,9.44
2023-02-24T06:08:12.817Z,9.46
2023-02-24T06:10:43.360Z,9.45
2023-02-24T06:13:13.782Z,9.44
2023-02-24T06:15:51.037Z,9.32
2023-02-24T06:18:22.643Z,9.38
2023-02-24T06:20:52.872Z,9.51
2023-02-24T06:23:22.110Z,9.46
2023-02-24T06:25:58.638Z,9.19
2023-02-24T06:28:30.870Z,9.09
2023-02-24T06:31:08.072Z,9.03
2023-02-24T06:33:39.188Z,9.14
2023-02-24T06:36:10.009Z,9.03
2023-02-24T06:38:44.684Z,9.02
2023-02-24T06:41:14.582Z,9.02
2023-02-24T06:43:49.134Z,9.01
2023-02-24T06:46:20.174Z,9.04
2023-02-24T06:48:49.736Z,9.04
2023-02-24T06:51:19.614Z,8.98
2023-02-24T06:53:51.405Z,8.97
2023-02-24T06:56:21.692Z,9.14
2023-02-24T06:58:52.624Z,9.11
2023-02-24T07:01:27.114Z,9.08
2023-02-24T07:04:08.407Z,9.22
2023-02-24T07:06:40.103Z,9.28
2023-02-24T07:09:12.831Z,9.49
2023-02-24T07:11:52.633Z,9.63
2023-02-24T07:14:26.307Z,9.66
2023-02-24T07:16:59.103Z,9.74
2023-02-24T07:19:34.657Z,9.71
2023-02-24T07:22:08.746Z,9.59
2023-02-24T07:24:40.367Z,9.62
2023-02-24T07:27:13.319Z,9.61
2023-02-24T07:29:43.597Z,9.67
2023-02-24T07:32:13.437Z,9.67
2023-02-24T07:34:43.478Z,9.64
2023-02-24T07:37:13.673Z,9.74
2023-02-24T07:39:43.944Z,9.74
2023-02-24T07:42:14.765Z,9.72
2023-02-24T07:44:50.089Z,9.76
2023-02-24T07:47:23.458Z,9.83
2023-02-24T07:49:53.255Z,9.80
2023-02-24T07:52:23.598Z,9.65
2023-02-24T07:54:55.818Z,9.70
2023-02-24T07:57:29.886Z,9.71
2023-02-24T08:00:00.805Z,9.73
2023-02-24T08:02:41.955Z,9.62
2023-02-24T08:05:13.625Z,9.48
2023-02-24T08:07:51.086Z,9.62
2023-02-24T08:10:36.344Z,9.81
2023-02-24T08:13:16.146Z,9.75
2023-02-24T08:15:57.476Z,9.69
2023-02-24T08:18:29.300Z,9.67
2023-02-24T08:21:06.457Z,9.73
2023-02-24T08:23:45.426Z,9.67
2023-02-24T08:26:18.299Z,9.82
2023-02-24T08:28:53.809Z,10.04
2023-02-24T08:31:23.969Z,10.04
2023-02-24T08:33:57.564Z,9.99
2023-02-24T08:36:27.015Z,9.97
2023-02-24T08:39:00.613Z,9.91
2023-02-24T08:41:45.522Z,9.78
2023-02-24T08:44:20.489Z,9.77
2023-02-24T08:46:51.273Z,9.98
2023-02-24T08:49:21.039Z,9.84
2023-02-24T08:51:54.388Z,9.85
2023-02-24T08:54:32.590Z,9.57
2023-02-24T08:57:08.613Z,9.61
2023-02-24T08:59:38.842Z,9.51
2023-02-24T09:02:20.607Z,9.56
2023-02-24T09:04:57.051Z,9.64
2023-02-24T09:07:29.833Z,9.74
2023-02-24T09:09:59.670Z,9.71
2023-02-24T09:12:31.553Z,9.74
2023-02-24T09:15:05.225Z,9.59
2023-02-24T09:17:50.567Z,9.75
2023-02-24T09:20:30.584Z,9.40
2023-02-24T09:23:09.796Z,9.60
2023-02-24T09:25:50.617Z,9.81
2023-02-24T09:28:28.279Z,9.91
2023-02-24T09:31:01.461Z,9.91
2023-02-24T09:33:39.656Z,9.83
2023-02-24T09:36:20.795Z,9.73
2023-02-24T09:39:03.817Z,9.91
2023-02-24T09:42:18.329Z,9.86
2023-02-24T09:44:55.499Z,9.95
2023-02-24T09:47:49.845Z,9.54
2023-02-24T09:50:51.190Z,9.69
2023-02-24T09:53:19.792Z,9.56
2023-02-24T09:56:08.463Z,9.59
2023-02-24T09:58:44.070Z,9.42
2023-02-24T10:01:26.948Z,9.53
2023-02-24T10:04:23.468Z,9.44
2023-02-24T10:07:25.962Z,9.48
2023-02-24T10:10:20.201Z,9.39
2023-02-24T10:13:16.045Z,9.30
2023-02-24T10:15:57.855Z,9.24
2023-02-24T10:18:31.090Z,9.18
2023-02-24T10:21:31.080Z,9.22
2023-02-24T10:24:35.051Z,9.37
2023-02-24T10:27:24.613Z,9.41
2023-02-24T10:30:21.762Z,9.41
2023-02-24T10:32:55.377Z,9.23
2023-02-24T10:35:26.605Z,9.37
2023-02-24T10:38:06.142Z,9.40
2023-02-24T10:41:06.974Z,9.34
2023-02-24T10:43:46.358Z,9.34
2023-02-24T10:46:42.015Z,9.34
2023-02-24T10:49:20.332Z,9.30
2023-02-24T10:51:53.337Z,9.25
2023-02-24T10:55:05.649Z,9.20
2023-02-24T10:57:59.134Z,9.22
2023-02-24T11:01:18.653Z,9.14
2023-02-24T11:04:20.550Z,9.35
2023-02-24T11:06:53.339Z,9.58
2023-02-24T11:09:29.699Z,9.62
2023-02-24T11:12:26.515Z,9.64
2023-02-24T11:15:16.923Z,9.83
2023-02-24T11:17:51.495Z,9.56
2023-02-24T11:20:48.617Z,9.60
2023-02-24T11:23:26.710Z,9.60
2023-02-24T11:26:01.633Z,9.76
2023-02-24T11:28:53.987Z,9.62
2023-02-24T11:31:23.962Z,9.70
2023-02-24T11:34:07.179Z,9.62
2023-02-24T11:37:21.994Z,9.70
2023-02-24T11:40:01.879Z,9.61
2023-02-24T11:42:42.610Z,9.64
2023-02-24T11:45:35.160Z,9.60
2023-02-24T11:48:15.899Z,9.53
2023-02-24T11:50:48.868Z,9.47
2023-02-24T11:53:24.834Z,9.60
2023-02-24T11:56:06.055Z,9.60
2023-02-24T11:58:42.404Z,9.77
2023-02-24T12:01:58.761Z,9.76
2023-02-24T12:04:42.148Z,9.69
2023-02-24T12:07:24.109Z,9.78
2023-02-24T12:10:17.947Z,9.58
2023-02-24T12:12:50.962Z,9.50
2023-02-24T12:15:27.009Z,9.63
2023-02-24T12:18:13.758Z,9.58
2023-02-24T12:21:15.996Z,9.59
2023-02-24T12:23:47.145Z,9.75
2023-02-24T12:26:56.237Z,9.76
2023-02-24T12:30:06.076Z,9.67
2023-02-24T12:33:02.422Z,9.73
2023-02-24T12:36:14.927Z,9.61
2023-02-24T12:39:16.785Z,9.74
2023-02-24T12:41:54.910Z,9.82
2023-02-24T12:44:52.790Z,9.74
2023-02-24T12:47:33.892Z,9.91
2023-02-24T12:50:23.997Z,9.82
2023-02-24T12:52:54.597Z,9.86
2023-02-24T12:55:45.471Z,9.88
2023-02-24T12:58:18.765Z,9.77
2023-02-24T13:00:55.531Z,9.87
2023-02-24T13:03:29.630Z,9.73
2023-02-24T13:06:30.908Z,9.83
2023-02-24T13:09:30.370Z,9.75
2023-02-24T13:12:05.054Z,9.83
2023-02-24T13:14:38.592Z,9.84
2023-02-24T13:17:19.296Z,9.84
2023-02-24T13:19:49.667Z,9.91
2023-02-24T13:22:26.291Z,9.89
2023-02-24T13:24:57.440Z,10.00
2023-02-24T13:27:32.388Z,9.99
2023-02-24T13:30:14.985Z,9.85
2023-02-24T13:32:49.436Z,9.93
2023-02-24T13:35:21.740Z,9.81
2023-02-24T13:37:55.384Z,9.95
2023-02-24T13:40:27.861Z,9.85
2023-02-24T13:43:00.709Z,10.00
2023-02-24T13:45:31.864Z,9.90
2023-02-24T13:48:29.855Z,9.90
2023-02-24T13:51:17.778Z,9.83
2023-02-24T13:54:25.847Z,9.79
2023-02-24T13:57:12.096Z,9.76
2023-02-24T14:00:35.665Z,9.75
2023-02-24T14:03:13.681Z,9.94
2023-02-24T14:05:44.305Z,9.83
2023-02-24T14:08:22.988Z,10.04
2023-02-24T14:10:56.736Z,9.78
2023-02-24T14:13:30.225Z,9.91
2023-02-24T14:16:08.752Z,10.04
2023-02-24T14:18:41.246Z,9.97
2023-02-24T14:21:24.487Z,9.85
2023-02-24T14:24:11.574Z,9.88
2023-02-24T14:26:46.727Z,9.96
2023-02-24T14:29:22.370Z,9.75
2023-02-24T14:31:54.142Z,9.78
2023-02-24T14:34:25.605Z,9.74
2023-02-24T14:37:08.700Z,9.61
2023-02-24T14:40:07.543Z,9.80
2023-02-24T14:42:53.261Z,9.86
2023-02-24T14:45:29.300Z,9.76
2023-02-24T14:47:59.149Z,9.78
2023-02-24T14:50:31.865Z,9.81
2023-02-24T14:53:07.300Z,9.98
2023-02-24T14:55:41.554Z,9.86
2023-02-24T14:58:20.971Z,10.07
2023-02-24T15:00:54.958Z,10.06
2023-02-24T15:03:32.248Z,10.09
2023-02-24T15:06:08.423Z,10.30
2023-02-24T15:08:44.851Z,10.08
2023-02-24T15:11:21.929Z,10.15
2023-02-24T15:14:03.085Z,10.10
2023-02-24T15:16:42.692Z,10.16
2023-02-24T15:19:28.853Z,10.16
2023-02-24T15:21:59.473Z,10.22
2023-02-24T15:24:33.968Z,10.33
2023-02-24T15:27:21.102Z,10.43
2023-02-24T15:30:29.514Z,10.28
2023-02-24T15:33:18.508Z,10.30
2023-02-24T15:35:58.894Z,10.45
2023-02-24T15:38:33.359Z,10.36
2023-02-24T15:41:04.876Z,10.30
2023-02-24T15:43:35.899Z,10.28
2023-02-24T15:46:34.436Z,10.33
2023-02-24T15:49:05.470Z,10.28
2023-02-24T15:51:39.539Z,10.30
2023-02-24T15:54:22.519Z,10.25
2023-02-24T15:56:51.531Z,10.22
2023-02-24T15:59:23.060Z,10.07
2023-02-24T16:01:53.281Z,10.17
2023-02-24T16:04:27.220Z,10.27
2023-02-24T16:06:57.978Z,10.15
2023-02-24T16:09:38.261Z,10.37
2023-02-24T16:12:20.742Z,10.23
2023-02-24T16:14:55.372Z,10.36
2023-02-24T16:17:33.322Z,10.38
2023-02-24T16:20:09.849Z,10.36
2023-02-24T16:22:41.504Z,10.26
2023-02-24T16:25:18.438Z,10.37
2023-02-24T16:27:51.318Z,10.31
2023-02-24T16:30:22.732Z,10.20
2023-02-24T16:32:58.674Z,10.29
2023-02-24T16:35:28.401Z,10.17
2023-02-24T16:38:01.565Z,10.24
2023-02-24T16:40:34.303Z,10.01
2023-02-24T16:43:07.411Z,10.04
2023-02-24T16:45:39.286Z,10.20
2023-02-24T16:48:20.302Z,10.25
2023-02-24T16:50:50.560Z,10.13
2023-02-24T16:53:23.918Z,10.19
2023-02-24T16:55:53.982Z,10.02
2023-02-24T16:58:25.626Z,10.26
2023-02-24T17:00:57.805Z,10.26
2023-02-24T17:03:34.532Z,10.12
2023-02-24T17:06:08.073Z,10.18
2023-02-24T17:08:42.282Z,9.97
2023-02-24T17:11:18.048Z,10.04
2023-02-24T17:13:47.852Z,10.00
2023-02-24T17:16:22.295Z,9.99
2023-02-24T17:18:52.192Z,10.06
2023-02-24T17:21:21.676Z,10.08
2023-02-24T17:23:52.325Z,10.07
2023-02-24T17:26:22.387Z,10.19
2023-02-24T17:28:53.244Z,10.12
2023-02-24T17:31:23.624Z,10.09
2023-02-24T17:33:58.833Z,10.17
2023-02-24T17:36:29.717Z,10.05
2023-02-24T17:39:05.875Z,9.93
2023-02-24T17:41:37.728Z,9.93
2023-02-24T17:44:07.399Z,9.93
2023-02-24T17:46:38.658Z,10.00
2023-02-24T17:49:09.721Z,9.96
2023-02-24T17:51:40.438Z,10.00
2023-02-24T17:54:13.181Z,9.97
2023-02-24T17:56:46.250Z,10.05
2023-02-24T17:59:15.318Z,10.04
2023-02-24T18:01:47.572Z,9.84
2023-02-24T18:04:21.776Z,9.91
2023-02-24T18:06:51.209Z,10.01
2023-02-24T18:09:25.778Z,10.07
2023-02-24T18:12:02.563Z,10.04
2023-02-24T18:14:41.031Z,10.21
2023-02-24T18:17:14.020Z,10.16
2023-02-24T18:19:43.641Z,10.31
2023-02-24T18:22:14.182Z,10.29
2023-02-24T18:24:45.400Z,10.32
2023-02-24T18:27:14.712Z,10.57
2023-02-24T18:29:49.140Z,10.58
2023-02-24T18:32:20.298Z,10.62
2023-02-24T18:34:54.886Z,10.64
2023-02-24T18:37:29.116Z,10.74
2023-02-24T18:40:02.056Z,10.67
2023-02-24T18:42:44.298Z,10.67
2023-02-24T18:45:15.737Z,10.82
2023-02-24T18:47:47.361Z,10.91
2023-02-24T18:50:25.607Z,10.92
2023-02-24T18:52:55.793Z,10.81
2023-02-24T18:55:30.621Z,10.92
2023-02-24T18:58:11.566Z,10.82
2023-02-24T19:00:43.895Z,10.75
2023-02-24T19:03:14.786Z,10.69
2023-02-24T19:05:46.752Z,10.74
2023-02-24T19:08:19.349Z,10.58
2023-02-24T19:13:53.989Z,10.95
2023-02-24T19:16:23.793Z,11.09
2023-02-24T19:18:58.861Z,11.13
2023-02-24T19:21:30.933Z,11.28
2023-02-24T19:24:04.590Z,11.14
2023-02-24T19:26:34.816Z,11.17
2023-02-24T19:29:17.820Z,11.28
2023-02-24T19:31:53.576Z,11.38
2023-02-24T19:34:23.372Z,11.29
2023-02-24T19:36:54.289Z,11.27
2023-02-24T19:39:24.406Z,11.13
2023-02-24T19:41:54.940Z,11.14
2023-02-24T19:44:24.487Z,11.15
2023-02-24T19:46:53.896Z,11.07
2023-02-24T19:49:23.499Z,11.14
2023-02-24T19:52:02.630Z,11.23
2023-02-24T19:54:31.997Z,11.25
2023-02-24T19:57:03.078Z,11.26
2023-02-24T19:59:42.236Z,11.24
2023-02-24T20:02:13.452Z,11.17
2023-02-24T20:04:45.909Z,11.47
2023-02-24T20:07:23.415Z,11.47
2023-02-24T20:09:55.803Z,11.51
2023-02-24T20:12:27.424Z,11.46
2023-02-24T20:14:56.671Z,11.42
2023-02-24T20:17:41.404Z,11.42
2023-02-24T20:20:33.080Z,11.22
2023-02-24T20:23:03.696Z,11.38
2023-02-24T20:25:33.491Z,11.39
2023-02-24T20:28:02.890Z,11.41
2023-02-24T20:30:32.133Z,11.35
2023-02-24T20:33:02.809Z,11.28
2023-02-24T20:35:40.998Z,10.95
2023-02-24T20:38:15.186Z,10.86
2023-02-24T20:40:47.268Z,10.85
2023-02-24T20:43:17.467Z,10.80
2023-02-24T20:45:49.668Z,11.03
2023-02-24T20:48:20.001Z,10.99
2023-02-24T20:50:49.098Z,11.08
2023-02-24T20:53:18.843Z,11.11
2023-02-24T20:56:03.708Z,11.25
2023-02-24T20:58:32.968Z,11.31
2023-02-24T21:01:02.870Z,11.38
2023-02-24T21:03:33.426Z,11.36
2023-02-24T21:06:09.843Z,11.29
2023-02-24T21:08:44.503Z,11.20
2023-02-24T21:11:15.318Z,11.22
2023-02-24T21:14:19.078Z,11.05
2023-02-24T21:19:47.114Z,11.56
2023-02-24T21:22:34.337Z,11.68
2023-02-24T21:25:03.995Z,11.65
2023-02-24T21:27:33.966Z,11.51
2023-02-24T21:30:08.621Z,11.49
2023-02-24T21:32:39.984Z,11.65
2023-02-24T21:35:15.087Z,11.41
2023-02-24T21:37:46.172Z,10.78
2023-02-24T21:40:18.585Z,10.73
2023-02-24T21:42:48.764Z,10.71
2023-02-24T21:45:20.028Z,10.84
2023-02-24T21:47:49.598Z,10.83
2023-02-24T21:50:19.139Z,10.87
2023-02-24T21:52:49.622Z,11.01
2023-02-24T21:55:21.311Z,10.82
2023-02-24T21:57:53.281Z,10.94
2023-02-24T22:00:24.634Z,11.03
2023-02-24T22:02:57.033Z,10.99
2023-02-24T22:05:27.725Z,11.00
2023-02-24T22:07:58.862Z,11.06
2023-02-24T22:10:28.602Z,10.92
2023-02-24T22:12:57.912Z,10.95
2023-02-24T22:15:28.986Z,11.03
2023-02-24T22:17:59.784Z,11.03
2023-02-24T22:20:29.316Z,11.00
2023-02-24T22:22:59.028Z,10.94
2023-02-24T22:25:28.682Z,11.11
2023-02-24T22:28:00.831Z,10.79
2023-02-24T22:30:31.974Z,10.83
2023-02-24T22:33:01.574Z,10.76
2023-02-24T22:35:36.330Z,10.74
2023-02-24T22:38:05.770Z,10.83
2023-02-24T22:40:42.192Z,10.78
2023-02-24T22:43:15.010Z,10.87
2023-02-24T22:45:44.163Z,10.56
2023-02-24T22:48:16.515Z,10.60
2023-02-24T22:50:47.330Z,10.69
2023-02-24T22:53:17.232Z,10.84
2023-02-24T22:55:49.112Z,10.99
2023-02-24T22:58:19.180Z,10.86
2023-02-24T23:00:49.070Z,10.93
2023-02-24T23:03:23.127Z,10.89
2023-02-24T23:06:00.905Z,10.92
2023-02-24T23:08:32.569Z,10.86
2023-02-24T23:15:47.205Z,10.58
2023-02-24T23:18:18.059Z,10.71
2023-02-24T23:22:25.748Z,10.78
2023-02-24T23:24:54.881Z,10.89
2023-02-24T23:27:23.759Z,11.05
2023-02-24T23:29:52.447Z,11.14
2023-02-24T23:32:21.512Z,11.13
2023-02-24T23:34:54.215Z,11.19
2023-02-24T23:37:22.995Z,11.06
2023-02-24T23:39:52.439Z,10.93
2023-02-24T23:42:21.992Z,10.78
2023-02-24T23:44:51.328Z,11.11
2023-02-24T23:47:26.268Z,11.15
2023-02-24T23:49:55.828Z,11.14
2023-02-24T23:52:24.796Z,11.20
2023-02-24T23:54:54.428Z,11.37
2023-02-24T23:57:23.191Z,11.54
2023-02-24T23:59:53.569Z,11.63
